Station Historical Data
 
Daily Summary for April 23, 2014 Units:  English    Metric   Both
« Previous Day
Next Day »
Daily Weekly Monthly Yearly Custom
  Current: High: Low: Average:
Temperature: 66.9 °F 67.0 °F 43.9 °F 54.7 °F
Dew Point: 42.5 °F 50.7 °F 40.3 °F 44.1 °F
Humidity: 41% 91% 40% 70%
Wind Speed: 1.0mph 8.0mph 0.0mph 1.6mph
Wind Gust: 5.0mph 11.0mph - -
WindENE - - ENE
Pressure: 29.99 in 30.03 in 29.89 in -
Precipitation: 0.00 in      
Historical Graphs
 
 
Tabular Data for April 23, 2014
Time Temperature Dew Point Pressure Wind Wind Speed Wind Gust Humidity Rainfall Rate (Hourly) Conditions
00:01 58.6 °F 50.7 °F 29.89 in Calm     75% 0.00 in
00:02 58.6 °F 50.7 °F 29.89 in Calm     75% 0.00 in
00:03 58.5 °F 50.6 °F 29.89 in Calm     75% 0.00 in
00:08 58.3 °F 50.1 °F 29.89 in Calm   1.0 mph 74% 0.00 in
00:13 58.2 °F 50.0 °F 29.89 in Calm     74% 0.00 in
00:18 58.0 °F 49.4 °F 29.89 in Calm     73% 0.00 in
00:23 57.7 °F 49.1 °F 29.90 in Calm     73% 0.00 in
00:26 57.6 °F 49.0 °F 29.89 in Calm   1.0 mph 73% 0.00 in
00:31 57.5 °F 48.9 °F 29.90 in Calm   1.0 mph 73% 0.00 in
00:36 57.4 °F 48.8 °F 29.90 in Calm   1.0 mph 73% 0.00 in
00:41 57.4 °F 49.2 °F 29.90 in Calm     74% 0.00 in
00:46 57.2 °F 49.0 °F 29.90 in Calm   1.0 mph 74% 0.00 in
00:51 57.0 °F 49.2 °F 29.90 in Calm   1.0 mph 75% 0.00 in
00:56 57.0 °F 49.2 °F 29.90 in Calm   3.0 mph 75% 0.00 in
01:01 56.8 °F 49.0 °F 29.90 in NNE 1.0 mph 1.0 mph 75% 0.00 in
01:06 56.8 °F 48.2 °F 29.90 in NE 2.0 mph 3.0 mph 73% 0.00 in
01:11 57.0 °F 48.4 °F 29.91 in Calm   1.0 mph 73% 0.00 in
01:16 57.0 °F 47.7 °F 29.91 in Calm   2.0 mph 71% 0.00 in
01:21 57.1 °F 48.5 °F 29.91 in NNE 1.0 mph 4.0 mph 73% 0.00 in
01:26 57.1 °F 47.4 °F 29.91 in NNE 1.0 mph 5.0 mph 70% 0.00 in
01:31 57.2 °F 47.1 °F 29.91 in NE 1.0 mph 4.0 mph 69% 0.00 in
01:36 57.4 °F 46.9 °F 29.91 in NE 1.0 mph 4.0 mph 68% 0.00 in
01:41 57.6 °F 46.3 °F 29.91 in NE 2.0 mph 4.0 mph 66% 0.00 in
01:46 57.7 °F 46.0 °F 29.91 in NNW 2.0 mph 7.0 mph 65% 0.00 in
01:51 57.6 °F 47.1 °F 29.91 in NE 4.0 mph 4.0 mph 68% 0.00 in
01:56 57.4 °F 46.2 °F 29.92 in NE 3.0 mph 8.0 mph 66% 0.00 in
02:01 57.4 °F 46.2 °F 29.92 in NNE 2.0 mph 6.0 mph 66% 0.00 in
02:06 57.2 °F 46.0 °F 29.92 in NE 1.0 mph 7.0 mph 66% 0.00 in
02:11 57.2 °F 46.0 °F 29.91 in NNE 3.0 mph 6.0 mph 66% 0.00 in
02:16 57.0 °F 45.8 °F 29.91 in NNE 5.0 mph 6.0 mph 66% 0.00 in
02:21 56.8 °F 45.6 °F 29.91 in NE 4.0 mph 4.0 mph 66% 0.00 in
02:26 56.6 °F 45.4 °F 29.91 in NE 2.0 mph 3.0 mph 66% 0.00 in
02:31 56.2 °F 45.8 °F 29.91 in NE 1.0 mph 3.0 mph 68% 0.00 in
02:36 55.7 °F 46.5 °F 29.91 in Calm   3.0 mph 71% 0.00 in
02:41 55.1 °F 46.6 °F 29.91 in Calm   3.0 mph 73% 0.00 in
02:46 54.6 °F 46.5 °F 29.91 in Calm   1.0 mph 74% 0.00 in
02:52 54.0 °F 45.9 °F 29.91 in Calm     74% 0.00 in
02:57 53.5 °F 45.8 °F 29.91 in Calm   1.0 mph 75% 0.00 in
03:02 53.0 °F 46.0 °F 29.91 in Calm     77% 0.00 in
03:07 52.7 °F 45.7 °F 29.90 in Calm   2.0 mph 77% 0.00 in
03:12 52.5 °F 45.8 °F 29.91 in Calm   1.0 mph 78% 0.00 in
03:17 52.3 °F 45.7 °F 29.91 in Calm     78% 0.00 in
03:22 52.1 °F 44.8 °F 29.91 in Calm     76% 0.00 in
03:27 51.8 °F 44.5 °F 29.91 in Calm     76% 0.00 in
03:32 51.6 °F 44.3 °F 29.91 in Calm     76% 0.00 in
03:37 51.2 °F 44.2 °F 29.91 in Calm     77% 0.00 in
03:42 50.8 °F 44.2 °F 29.91 in Calm     78% 0.00 in
03:47 50.4 °F 44.1 °F 29.91 in Calm     79% 0.00 in
03:52 50.0 °F 44.1 °F 29.91 in Calm     80% 0.00 in
03:57 49.6 °F 44.0 °F 29.91 in Calm     81% 0.00 in
04:02 49.3 °F 44.0 °F 29.92 in Calm     82% 0.00 in
04:07 49.0 °F 43.8 °F 29.92 in Calm     82% 0.00 in
04:12 48.9 °F 43.7 °F 29.92 in Calm     82% 0.00 in
04:17 48.6 °F 43.7 °F 29.92 in Calm     83% 0.00 in
04:22 48.2 °F 43.3 °F 29.92 in Calm     83% 0.00 in
04:27 48.0 °F 43.7 °F 29.92 in Calm     85% 0.00 in
04:32 47.7 °F 43.4 °F 29.92 in Calm     85% 0.00 in
04:37 47.3 °F 43.0 °F 29.92 in Calm     85% 0.00 in
04:42 47.1 °F 43.1 °F 29.92 in Calm     86% 0.00 in
04:47 46.9 °F 43.5 °F 29.92 in Calm     88% 0.00 in
04:52 46.8 °F 43.4 °F 29.92 in Calm     88% 0.00 in
04:57 46.5 °F 43.1 °F 29.92 in Calm     88% 0.00 in
05:02 46.5 °F 43.7 °F 29.92 in Calm     90% 0.00 in
05:07 46.7 °F 44.2 °F 29.92 in Calm     91% 0.00 in
05:12 46.6 °F 43.8 °F 29.92 in Calm     90% 0.00 in
05:17 46.4 °F 43.6 °F 29.92 in Calm   1.0 mph 90% 0.00 in
05:22 46.7 °F 43.6 °F 29.93 in Calm     89% 0.00 in
05:27 47.0 °F 43.9 °F 29.93 in Calm     89% 0.00 in
05:32 47.0 °F 43.3 °F 29.93 in Calm     87% 0.00 in
05:37 46.9 °F 43.2 °F 29.93 in Calm     87% 0.00 in
05:42 46.8 °F 43.4 °F 29.93 in Calm     88% 0.00 in
05:47 46.7 °F 43.0 °F 29.94 in Calm     87% 0.00 in
05:52 46.7 °F 43.3 °F 29.94 in Calm     88% 0.00 in
05:57 46.7 °F 43.3 °F 29.94 in Calm     88% 0.00 in
06:02 46.4 °F 43.0 °F 29.94 in Calm     88% 0.00 in
06:07 46.3 °F 42.3 °F 29.94 in Calm     86% 0.00 in
06:12 46.2 °F 42.2 °F 29.95 in Calm     86% 0.00 in
06:17 46.1 °F 42.5 °F 29.95 in Calm     87% 0.00 in
06:22 45.8 °F 41.9 °F 29.95 in Calm     86% 0.00 in
06:27 45.5 °F 41.9 °F 29.95 in Calm     87% 0.00 in
06:32 45.2 °F 41.6 °F 29.95 in Calm     87% 0.00 in
06:37 45.0 °F 41.7 °F 29.96 in Calm     88% 0.00 in
06:42 44.9 °F 41.6 °F 29.96 in Calm     88% 0.00 in
06:47 44.7 °F 41.4 °F 29.96 in Calm     88% 0.00 in
06:52 44.5 °F 41.2 °F 29.97 in Calm     88% 0.00 in
06:58 44.4 °F 41.7 °F 29.97 in Calm     90% 0.00 in
07:03 44.4 °F 41.9 °F 29.97 in Calm     91% 0.00 in
07:08 44.3 °F 41.8 °F 29.97 in Calm     91% 0.00 in
07:13 44.0 °F 41.5 °F 29.97 in Calm     91% 0.00 in
07:18 43.9 °F 41.2 °F 29.97 in Calm     90% 0.00 in
07:23 43.9 °F 41.5 °F 29.98 in Calm     91% 0.00 in
07:28 44.0 °F 41.5 °F 29.98 in Calm     91% 0.00 in
07:33 44.0 °F 41.5 °F 29.98 in Calm     91% 0.00 in
07:38 44.4 °F 41.9 °F 29.98 in Calm     91% 0.00 in
07:43 45.0 °F 42.5 °F 29.99 in Calm   1.0 mph 91% 0.00 in
07:48 45.3 °F 42.0 °F 29.99 in Calm     88% 0.00 in
07:53 45.5 °F 42.2 °F 29.99 in Calm     88% 0.00 in
07:58 46.1 °F 42.5 °F 29.99 in Calm     87% 0.00 in
08:03 46.9 °F 42.9 °F 29.99 in Calm   1.0 mph 86% 0.00 in
08:08 47.6 °F 43.0 °F 30.00 in NE 1.0 mph 2.0 mph 84% 0.00 in
08:13 48.7 °F 43.1 °F 30.00 in Calm   3.0 mph 81% 0.00 in
08:18 49.4 °F 43.2 °F 30.00 in NE 3.0 mph 3.0 mph 79% 0.00 in
08:23 50.3 °F 43.7 °F 30.01 in Calm   3.0 mph 78% 0.00 in
08:28 51.2 °F 43.6 °F 30.01 in NNE 1.0 mph 3.0 mph 75% 0.00 in
08:33 51.8 °F 43.1 °F 30.01 in NNE 2.0 mph 5.0 mph 72% 0.00 in
08:38 52.4 °F 43.3 °F 30.01 in NE 1.0 mph 5.0 mph 71% 0.00 in
08:43 53.0 °F 43.9 °F 30.01 in NE 1.0 mph 5.0 mph 71% 0.00 in
08:48 53.7 °F 44.2 °F 30.01 in NNE 1.0 mph 4.0 mph 70% 0.00 in
08:53 54.2 °F 44.3 °F 30.01 in NE 3.0 mph 3.0 mph 69% 0.00 in
08:58 54.5 °F 43.4 °F 30.02 in NNE 2.0 mph 5.0 mph 66% 0.00 in
09:03 54.9 °F 44.2 °F 30.02 in North 3.0 mph 4.0 mph 67% 0.00 in
09:08 55.4 °F 44.2 °F 30.02 in NNE 3.0 mph 4.0 mph 66% 0.00 in
09:13 55.7 °F 44.5 °F 30.02 in NNE 2.0 mph 4.0 mph 66% 0.00 in
09:18 55.9 °F 44.3 °F 30.02 in NE 4.0 mph 5.0 mph 65% 0.00 in
09:23 56.3 °F 45.1 °F 30.02 in NNE 3.0 mph 5.0 mph 66% 0.00 in
09:28 56.7 °F 45.1 °F 30.02 in NE 5.0 mph 5.0 mph 65% 0.00 in
09:33 57.1 °F 44.6 °F 30.02 in NNE 3.0 mph 5.0 mph 63% 0.00 in
09:38 57.4 °F 44.5 °F 30.02 in NNE 3.0 mph 7.0 mph 62% 0.00 in
09:43 57.6 °F 44.3 °F 30.02 in NE 3.0 mph 6.0 mph 61% 0.00 in
09:48 57.9 °F 43.2 °F 30.02 in NE 1.0 mph 6.0 mph 58% 0.00 in
09:53 58.0 °F 42.4 °F 30.02 in NNE 2.0 mph 7.0 mph 56% 0.00 in
09:58 58.2 °F 43.5 °F 30.03 in NNE 2.0 mph 5.0 mph 58% 0.00 in
10:03 58.6 °F 42.5 °F 30.03 in NE 2.0 mph 6.0 mph 55% 0.00 in
10:08 58.8 °F 42.2 °F 30.03 in NNE 4.0 mph 9.0 mph 54% 0.00 in
10:13 59.0 °F 42.9 °F 30.03 in NE 3.0 mph 9.0 mph 55% 0.00 in
10:18 59.2 °F 42.6 °F 30.03 in North 4.0 mph 7.0 mph 54% 0.00 in
10:23 59.5 °F 43.3 °F 30.03 in NE 4.0 mph 7.0 mph 55% 0.00 in
10:28 59.8 °F 41.7 °F 30.03 in NE 3.0 mph 7.0 mph 51% 0.00 in
10:33 60.1 °F 43.4 °F 30.03 in ENE 3.0 mph 4.0 mph 54% 0.00 in
10:39 60.5 °F 42.8 °F 30.03 in NE 4.0 mph 7.0 mph 52% 0.00 in
10:44 60.5 °F 42.3 °F 30.03 in ENE 6.0 mph 8.0 mph 51% 0.00 in
10:49 60.6 °F 42.9 °F 30.03 in North 2.0 mph 8.0 mph 52% 0.00 in
10:54 61.0 °F 43.3 °F 30.03 in NNW 6.0 mph 7.0 mph 52% 0.00 in
10:59 61.2 °F 41.4 °F 30.03 in North 5.0 mph 10.0 mph 48% 0.00 in
11:04 61.3 °F 42.0 °F 30.03 in NE 7.0 mph 9.0 mph 49% 0.00 in
11:09 61.5 °F 41.1 °F 30.03 in NE 6.0 mph 9.0 mph 47% 0.00 in
11:14 61.6 °F 40.6 °F 30.03 in NE 7.0 mph 8.0 mph 46% 0.00 in
11:19 61.6 °F 41.7 °F 30.03 in ENE 4.0 mph 9.0 mph 48% 0.00 in
11:24 61.7 °F 40.7 °F 30.03 in NW 3.0 mph 8.0 mph 46% 0.00 in
11:29 61.9 °F 40.9 °F 30.03 in ENE 4.0 mph 7.0 mph 46% 0.00 in
11:34 61.9 °F 40.3 °F 30.03 in NNE 5.0 mph 9.0 mph 45% 0.00 in
11:39 62.0 °F 41.6 °F 30.03 in ENE 4.0 mph 6.0 mph 47% 0.00 in
11:44 62.2 °F 43.3 °F 30.03 in NE 5.0 mph 10.0 mph 50% 0.00 in
11:49 62.5 °F 40.9 °F 30.03 in NE 3.0 mph 8.0 mph 45% 0.00 in
11:54 62.9 °F 44.0 °F 30.03 in East 3.0 mph 5.0 mph 50% 0.00 in
11:59 63.3 °F 43.3 °F 30.03 in NE 4.0 mph 6.0 mph 48% 0.00 in
12:04 63.7 °F 43.7 °F 30.03 in NE 3.0 mph 6.0 mph 48% 0.00 in
12:09 63.7 °F 43.1 °F 30.03 in NE 5.0 mph 10.0 mph 47% 0.00 in
12:14 63.7 °F 44.2 °F 30.03 in WSW 2.0 mph 5.0 mph 49% 0.00 in
12:19 64.0 °F 43.4 °F 30.03 in ENE 6.0 mph 6.0 mph 47% 0.00 in
12:24 64.0 °F 42.3 °F 30.03 in East 3.0 mph 7.0 mph 45% 0.00 in
12:29 64.1 °F 42.9 °F 30.03 in East 4.0 mph 6.0 mph 46% 0.00 in
12:34 64.2 °F 43.0 °F 30.03 in NE 4.0 mph 6.0 mph 46% 0.00 in
12:39 64.6 °F 42.2 °F 30.03 in NE 3.0 mph 6.0 mph 44% 0.00 in
12:44 64.9 °F 43.7 °F 30.03 in ESE 1.0 mph 11.0 mph 46% 0.00 in
12:49 64.9 °F 40.7 °F 30.03 in NE 7.0 mph 10.0 mph 41% 0.00 in
12:54 65.3 °F 41.6 °F 30.02 in East 5.0 mph 5.0 mph 42% 0.00 in
12:59 65.3 °F 41.6 °F 30.02 in NE 1.0 mph 8.0 mph 42% 0.00 in
13:04 65.7 °F 43.2 °F 30.01 in ENE 3.0 mph 7.0 mph 44% 0.00 in
13:09 66.0 °F 44.1 °F 30.01 in NNE 8.0 mph 8.0 mph 45% 0.00 in
13:15 66.0 °F 42.9 °F 30.01 in North 4.0 mph 6.0 mph 43% 0.00 in
13:20 66.3 °F 43.8 °F 30.00 in East 3.0 mph 5.0 mph 44% 0.00 in
13:25 66.2 °F 41.8 °F 30.00 in NE 3.0 mph 6.0 mph 41% 0.00 in
13:30 66.9 °F 43.1 °F 30.00 in NE 4.0 mph 6.0 mph 42% 0.00 in
13:35 67.0 °F 43.8 °F 30.00 in NE 3.0 mph 7.0 mph 43% 0.00 in
13:40 66.6 °F 41.5 °F 30.00 in NNE 3.0 mph 8.0 mph 40% 0.00 in
13:45 66.9 °F 42.5 °F 29.99 in ENE 1.0 mph 5.0 mph 41% 0.00 in
Compliments of Weather Underground